sensor_id;sensor_type;location;lat;lon;timestamp;temperature;humidity
7942;HTU21D;4016;50.758;7.150;2024-03-06T00:03:34;6.68;118.99
7942;HTU21D;4016;50.758;7.150;2024-03-06T00:08:35;6.67;118.99
7942;HTU21D;4016;50.758;7.150;2024-03-06T00:13:35;6.67;118.99
7942;HTU21D;4016;50.758;7.150;2024-03-06T00:18:36;6.70;118.99
7942;HTU21D;4016;50.758;7.150;2024-03-06T00:23:36;6.69;118.99
7942;HTU21D;4016;50.758;7.150;2024-03-06T00:28:38;6.67;118.99
7942;HTU21D;4016;50.758;7.150;2024-03-06T00:33:40;6.68;118.99
7942;HTU21D;4016;50.758;7.150;2024-03-06T00:38:40;6.64;118.99
7942;HTU21D;4016;50.758;7.150;2024-03-06T00:43:41;6.63;118.99
7942;HTU21D;4016;50.758;7.150;2024-03-06T00:48:41;6.82;118.99
7942;HTU21D;4016;50.758;7.150;2024-03-06T00:53:42;6.70;118.99
7942;HTU21D;4016;50.758;7.150;2024-03-06T00:58:42;6.79;118.99
7942;HTU21D;4016;50.758;7.150;2024-03-06T01:03:43;6.74;118.99
7942;HTU21D;4016;50.758;7.150;2024-03-06T01:08:44;6.74;118.99
7942;HTU21D;4016;50.758;7.150;2024-03-06T01:13:44;6.79;118.99
7942;HTU21D;4016;50.758;7.150;2024-03-06T01:18:44;6.73;118.99
7942;HTU21D;4016;50.758;7.150;2024-03-06T01:23:45;6.68;118.99
7942;HTU21D;4016;50.758;7.150;2024-03-06T01:28:45;6.63;118.99
7942;HTU21D;4016;50.758;7.150;2024-03-06T01:33:46;6.60;118.99
7942;HTU21D;4016;50.758;7.150;2024-03-06T01:38:46;6.55;118.99
7942;HTU21D;4016;50.758;7.150;2024-03-06T01:43:46;6.44;118.99
7942;HTU21D;4016;50.758;7.150;2024-03-06T01:48:47;6.34;118.99
7942;HTU21D;4016;50.758;7.150;2024-03-06T01:53:48;6.21;118.99
7942;HTU21D;4016;50.758;7.150;2024-03-06T01:58:48;6.11;118.99
7942;HTU21D;4016;50.758;7.150;2024-03-06T02:03:49;5.98;118.99
7942;HTU21D;4016;50.758;7.150;2024-03-06T02:08:49;5.93;118.99
7942;HTU21D;4016;50.758;7.150;2024-03-06T02:13:50;5.86;118.99
7942;HTU21D;4016;50.758;7.150;2024-03-06T02:18:54;5.81;118.99
7942;HTU21D;4016;50.758;7.150;2024-03-06T02:23:55;5.87;118.99
7942;HTU21D;4016;50.758;7.150;2024-03-06T02:28:56;5.76;118.99
7942;HTU21D;4016;50.758;7.150;2024-03-06T02:33:56;5.77;118.99
7942;HTU21D;4016;50.758;7.150;2024-03-06T02:38:58;5.75;118.99
7942;HTU21D;4016;50.758;7.150;2024-03-06T02:43:59;5.74;118.99
7942;HTU21D;4016;50.758;7.150;2024-03-06T02:48:59;5.76;118.99
7942;HTU21D;4016;50.758;7.150;2024-03-06T02:53:59;5.79;118.99
7942;HTU21D;4016;50.758;7.150;2024-03-06T02:59:00;5.83;118.99
7942;HTU21D;4016;50.758;7.150;2024-03-06T03:04:03;5.86;118.99
7942;HTU21D;4016;50.758;7.150;2024-03-06T03:09:04;5.79;118.99
7942;HTU21D;4016;50.758;7.150;2024-03-06T03:14:04;5.68;118.99
7942;HTU21D;4016;50.758;7.150;2024-03-06T03:19:05;5.61;118.99
7942;HTU21D;4016;50.758;7.150;2024-03-06T03:24:05;5.53;118.99
7942;HTU21D;4016;50.758;7.150;2024-03-06T03:29:05;5.37;118.99
7942;HTU21D;4016;50.758;7.150;2024-03-06T03:34:06;5.25;118.99
7942;HTU21D;4016;50.758;7.150;2024-03-06T03:39:06;5.15;118.99
7942;HTU21D;4016;50.758;7.150;2024-03-06T03:44:14;5.10;118.99
7942;HTU21D;4016;50.758;7.150;2024-03-06T03:49:14;5.15;118.99
7942;HTU21D;4016;50.758;7.150;2024-03-06T03:54:15;5.25;118.99
7942;HTU21D;4016;50.758;7.150;2024-03-06T03:59:15;5.33;118.99
7942;HTU21D;4016;50.758;7.150;2024-03-06T04:04:16;5.25;118.99
7942;HTU21D;4016;50.758;7.150;2024-03-06T04:09:16;5.07;118.99
7942;HTU21D;4016;50.758;7.150;2024-03-06T04:14:16;4.92;118.99
7942;HTU21D;4016;50.758;7.150;2024-03-06T04:19:17;4.80;118.99
7942;HTU21D;4016;50.758;7.150;2024-03-06T04:24:17;4.78;118.99
7942;HTU21D;4016;50.758;7.150;2024-03-06T04:29:18;4.77;118.99
7942;HTU21D;4016;50.758;7.150;2024-03-06T04:34:18;4.66;118.99
7942;HTU21D;4016;50.758;7.150;2024-03-06T04:39:20;4.63;118.99
7942;HTU21D;4016;50.758;7.150;2024-03-06T04:44:20;4.64;118.99
7942;HTU21D;4016;50.758;7.150;2024-03-06T04:49:20;4.64;118.99
7942;HTU21D;4016;50.758;7.150;2024-03-06T04:54:21;4.75;118.99
7942;HTU21D;4016;50.758;7.150;2024-03-06T04:59:21;4.67;118.99
7942;HTU21D;4016;50.758;7.150;2024-03-06T05:04:22;4.79;118.99
7942;HTU21D;4016;50.758;7.150;2024-03-06T05:09:22;4.66;118.99
7942;HTU21D;4016;50.758;7.150;2024-03-06T05:14:23;4.60;118.99
7942;HTU21D;4016;50.758;7.150;2024-03-06T05:19:23;4.67;118.99
7942;HTU21D;4016;50.758;7.150;2024-03-06T05:24:31;4.77;118.99
7942;HTU21D;4016;50.758;7.150;2024-03-06T05:29:32;4.58;118.99
7942;HTU21D;4016;50.758;7.150;2024-03-06T05:34:33;4.46;118.99
7942;HTU21D;4016;50.758;7.150;2024-03-06T05:39:34;4.32;118.99
7942;HTU21D;4016;50.758;7.150;2024-03-06T05:44:34;4.24;118.99
7942;HTU21D;4016;50.758;7.150;2024-03-06T05:49:34;4.17;118.99
7942;HTU21D;4016;50.758;7.150;2024-03-06T05:54:35;4.04;118.99
7942;HTU21D;4016;50.758;7.150;2024-03-06T05:59:35;3.91;118.99
7942;HTU21D;4016;50.758;7.150;2024-03-06T06:04:37;3.83;118.99
7942;HTU21D;4016;50.758;7.150;2024-03-06T06:09:38;3.72;118.99
7942;HTU21D;4016;50.758;7.150;2024-03-06T06:14:39;3.61;118.99
7942;HTU21D;4016;50.758;7.150;2024-03-06T06:19:42;3.50;118.99
7942;HTU21D;4016;50.758;7.150;2024-03-06T06:24:42;3.42;118.99
7942;HTU21D;4016;50.758;7.150;2024-03-06T06:29:42;3.42;118.99
7942;HTU21D;4016;50.758;7.150;2024-03-06T06:34:43;3.38;118.99
7942;HTU21D;4016;50.758;7.150;2024-03-06T06:39:45;3.41;118.99
7942;HTU21D;4016;50.758;7.150;2024-03-06T06:44:45;3.43;118.99
7942;HTU21D;4016;50.758;7.150;2024-03-06T06:49:46;3.34;118.99
7942;HTU21D;4016;50.758;7.150;2024-03-06T06:54:46;3.58;118.99
7942;HTU21D;4016;50.758;7.150;2024-03-06T06:59:47;3.53;118.99
7942;HTU21D;4016;50.758;7.150;2024-03-06T07:04:47;3.50;118.99
7942;HTU21D;4016;50.758;7.150;2024-03-06T07:09:48;3.54;118.99
7942;HTU21D;4016;50.758;7.150;2024-03-06T07:14:49;3.60;118.99
7942;HTU21D;4016;50.758;7.150;2024-03-06T07:19:49;3.85;118.99
7942;HTU21D;4016;50.758;7.150;2024-03-06T07:24:50;3.91;118.99
7942;HTU21D;4016;50.758;7.150;2024-03-06T07:29:51;4.03;118.99
7942;HTU21D;4016;50.758;7.150;2024-03-06T07:34:51;4.15;118.99
7942;HTU21D;4016;50.758;7.150;2024-03-06T07:39:51;4.37;118.99
7942;HTU21D;4016;50.758;7.150;2024-03-06T07:44:52;4.48;118.99
7942;HTU21D;4016;50.758;7.150;2024-03-06T07:49:52;4.72;118.99
7942;HTU21D;4016;50.758;7.150;2024-03-06T07:54:52;4.97;118.99
7942;HTU21D;4016;50.758;7.150;2024-03-06T07:59:53;5.09;118.99
7942;HTU21D;4016;50.758;7.150;2024-03-06T08:04:54;5.40;118.99
7942;HTU21D;4016;50.758;7.150;2024-03-06T08:09:55;5.54;118.99
7942;HTU21D;4016;50.758;7.150;2024-03-06T08:14:55;5.75;118.99
7942;HTU21D;4016;50.758;7.150;2024-03-06T08:19:56;6.16;118.99
7942;HTU21D;4016;50.758;7.150;2024-03-06T08:24:56;6.25;118.99
7942;HTU21D;4016;50.758;7.150;2024-03-06T08:29:57;6.27;118.99
7942;HTU21D;4016;50.758;7.150;2024-03-06T08:34:57;6.38;118.99
7942;HTU21D;4016;50.758;7.150;2024-03-06T08:39:59;6.54;118.99
7942;HTU21D;4016;50.758;7.150;2024-03-06T08:45:00;6.83;118.99
7942;HTU21D;4016;50.758;7.150;2024-03-06T08:50:00;6.82;118.99
7942;HTU21D;4016;50.758;7.150;2024-03-06T08:55:03;7.04;118.99
7942;HTU21D;4016;50.758;7.150;2024-03-06T09:00:07;7.19;118.99
7942;HTU21D;4016;50.758;7.150;2024-03-06T09:05:11;7.42;118.99
7942;HTU21D;4016;50.758;7.150;2024-03-06T09:10:13;7.65;118.99
7942;HTU21D;4016;50.758;7.150;2024-03-06T09:15:15;7.69;118.99
7942;HTU21D;4016;50.758;7.150;2024-03-06T09:20:16;7.79;118.99
7942;HTU21D;4016;50.758;7.150;2024-03-06T09:25:17;7.94;118.99
7942;HTU21D;4016;50.758;7.150;2024-03-06T09:30:17;8.49;118.99
7942;HTU21D;4016;50.758;7.150;2024-03-06T09:35:17;8.21;118.99
7942;HTU21D;4016;50.758;7.150;2024-03-06T09:40:22;8.36;118.99
7942;HTU21D;4016;50.758;7.150;2024-03-06T09:45:23;8.26;118.99
7942;HTU21D;4016;50.758;7.150;2024-03-06T09:50:24;8.57;118.99
7942;HTU21D;4016;50.758;7.150;2024-03-06T09:55:27;8.74;118.99
7942;HTU21D;4016;50.758;7.150;2024-03-06T10:00:27;8.91;118.99
7942;HTU21D;4016;50.758;7.150;2024-03-06T10:05:28;9.10;118.99
7942;HTU21D;4016;50.758;7.150;2024-03-06T10:10:30;9.27;118.99
7942;HTU21D;4016;50.758;7.150;2024-03-06T10:15:31;9.39;118.99
7942;HTU21D;4016;50.758;7.150;2024-03-06T10:20:36;9.68;118.99
7942;HTU21D;4016;50.758;7.150;2024-03-06T10:25:37;9.86;118.99
7942;HTU21D;4016;50.758;7.150;2024-03-06T10:30:41;9.99;118.99
7942;HTU21D;4016;50.758;7.150;2024-03-06T10:35:44;10.10;118.99
7942;HTU21D;4016;50.758;7.150;2024-03-06T10:40:44;10.38;118.99
7942;HTU21D;4016;50.758;7.150;2024-03-06T10:50:49;10.54;118.99
7942;HTU21D;4016;50.758;7.150;2024-03-06T10:55:51;10.75;118.99
7942;HTU21D;4016;50.758;7.150;2024-03-06T11:00:52;11.01;118.99
7942;HTU21D;4016;50.758;7.150;2024-03-06T11:05:53;11.11;118.99
7942;HTU21D;4016;50.758;7.150;2024-03-06T11:10:53;11.32;118.99
7942;HTU21D;4016;50.758;7.150;2024-03-06T11:15:57;11.42;118.99
7942;HTU21D;4016;50.758;7.150;2024-03-06T11:26:05;11.84;118.99
7942;HTU21D;4016;50.758;7.150;2024-03-06T11:31:07;11.75;118.99
7942;HTU21D;4016;50.758;7.150;2024-03-06T11:36:24;12.02;118.99
7942;HTU21D;4016;50.758;7.150;2024-03-06T11:46:47;12.15;118.99
7942;HTU21D;4016;50.758;7.150;2024-03-06T11:51:49;11.92;118.99
7942;HTU21D;4016;50.758;7.150;2024-03-06T11:56:51;12.19;118.99
7942;HTU21D;4016;50.758;7.150;2024-03-06T12:01:56;12.50;118.99
7942;HTU21D;4016;50.758;7.150;2024-03-06T12:07:00;12.87;118.99
7942;HTU21D;4016;50.758;7.150;2024-03-06T12:12:06;13.02;118.99
7942;HTU21D;4016;50.758;7.150;2024-03-06T12:17:12;13.29;118.99
7942;HTU21D;4016;50.758;7.150;2024-03-06T12:22:13;13.45;118.99
7942;HTU21D;4016;50.758;7.150;2024-03-06T12:27:22;13.58;118.99
7942;HTU21D;4016;50.758;7.150;2024-03-06T12:32:22;13.81;118.99
7942;HTU21D;4016;50.758;7.150;2024-03-06T12:37:30;13.59;118.99
7942;HTU21D;4016;50.758;7.150;2024-03-06T12:42:31;13.88;118.99
7942;HTU21D;4016;50.758;7.150;2024-03-06T12:47:32;14.09;118.99
7942;HTU21D;4016;50.758;7.150;2024-03-06T12:52:32;14.30;117.92
7942;HTU21D;4016;50.758;7.150;2024-03-06T12:57:34;14.58;115.46
7942;HTU21D;4016;50.758;7.150;2024-03-06T13:02:34;14.59;111.55
7942;HTU21D;4016;50.758;7.150;2024-03-06T13:07:34;14.55;107.91
7942;HTU21D;4016;50.758;7.150;2024-03-06T13:12:39;14.22;106.88
7942;HTU21D;4016;50.758;7.150;2024-03-06T13:17:39;14.06;111.94
7942;HTU21D;4016;50.758;7.150;2024-03-06T13:22:42;14.53;112.25
7942;HTU21D;4016;50.758;7.150;2024-03-06T13:27:44;14.69;108.77
7942;HTU21D;4016;50.758;7.150;2024-03-06T13:32:44;14.81;102.12
7942;HTU21D;4016;50.758;7.150;2024-03-06T13:37:46;14.34;100.99
7942;HTU21D;4016;50.758;7.150;2024-03-06T13:42:46;14.84;102.20
7942;HTU21D;4016;50.758;7.150;2024-03-06T13:47:47;15.15;105.87
7942;HTU21D;4016;50.758;7.150;2024-03-06T13:52:49;15.44;103.89
7942;HTU21D;4016;50.758;7.150;2024-03-06T13:57:49;15.33;101.19
7942;HTU21D;4016;50.758;7.150;2024-03-06T14:02:50;15.26;93.42
7942;HTU21D;4016;50.758;7.150;2024-03-06T14:07:51;14.71;95.34
7942;HTU21D;4016;50.758;7.150;2024-03-06T14:12:51;14.55;96.75
7942;HTU21D;4016;50.758;7.150;2024-03-06T14:17:53;14.48;98.26
7942;HTU21D;4016;50.758;7.150;2024-03-06T14:22:56;14.52;93.42
7942;HTU21D;4016;50.758;7.150;2024-03-06T14:27:56;14.45;90.33
7942;HTU21D;4016;50.758;7.150;2024-03-06T14:32:57;14.59;87.90
7942;HTU21D;4016;50.758;7.150;2024-03-06T14:37:57;14.40;89.70
7942;HTU21D;4016;50.758;7.150;2024-03-06T14:42:58;14.70;85.07
7942;HTU21D;4016;50.758;7.150;2024-03-06T14:47:58;14.64;85.19
7942;HTU21D;4016;50.758;7.150;2024-03-06T14:52:59;14.85;86.01
7942;HTU21D;4016;50.758;7.150;2024-03-06T14:57:59;14.95;82.87
7942;HTU21D;4016;50.758;7.150;2024-03-06T15:03:00;15.01;84.69
7942;HTU21D;4016;50.758;7.150;2024-03-06T15:08:02;15.00;84.20
7942;HTU21D;4016;50.758;7.150;2024-03-06T15:13:04;15.12;81.68
7942;HTU21D;4016;50.758;7.150;2024-03-06T15:18:04;14.89;80.08
7942;HTU21D;4016;50.758;7.150;2024-03-06T15:23:05;14.54;81.23
7942;HTU21D;4016;50.758;7.150;2024-03-06T15:28:05;14.62;80.88
7942;HTU21D;4016;50.758;7.150;2024-03-06T15:33:06;14.51;82.21
7942;HTU21D;4016;50.758;7.150;2024-03-06T15:38:07;14.53;81.62
7942;HTU21D;4016;50.758;7.150;2024-03-06T15:43:07;14.58;85.23
7942;HTU21D;4016;50.758;7.150;2024-03-06T15:48:08;14.47;81.10
7942;HTU21D;4016;50.758;7.150;2024-03-06T15:53:13;14.62;81.05
7942;HTU21D;4016;50.758;7.150;2024-03-06T15:58:14;14.60;81.13
7942;HTU21D;4016;50.758;7.150;2024-03-06T16:03:14;14.47;84.01
7942;HTU21D;4016;50.758;7.150;2024-03-06T16:08:14;14.36;83.61
7942;HTU21D;4016;50.758;7.150;2024-03-06T16:13:15;14.34;80.97
7942;HTU21D;4016;50.758;7.150;2024-03-06T16:18:16;14.34;83.91
7942;HTU21D;4016;50.758;7.150;2024-03-06T16:23:16;13.90;80.51
7942;HTU21D;4016;50.758;7.150;2024-03-06T16:28:17;13.59;80.36
7942;HTU21D;4016;50.758;7.150;2024-03-06T16:33:17;13.43;83.71
7942;HTU21D;4016;50.758;7.150;2024-03-06T16:38:18;13.33;89.89
7942;HTU21D;4016;50.758;7.150;2024-03-06T16:43:19;13.12;89.40
7942;HTU21D;4016;50.758;7.150;2024-03-06T16:48:20;12.88;92.16
7942;HTU21D;4016;50.758;7.150;2024-03-06T16:53:20;12.72;92.31
7942;HTU21D;4016;50.758;7.150;2024-03-06T16:58:20;12.58;95.05
7942;HTU21D;4016;50.758;7.150;2024-03-06T17:03:21;12.59;94.62
7942;HTU21D;4016;50.758;7.150;2024-03-06T17:08:21;12.38;94.21
7942;HTU21D;4016;50.758;7.150;2024-03-06T17:13:21;12.31;96.78
7942;HTU21D;4016;50.758;7.150;2024-03-06T17:18:22;12.20;96.70
7942;HTU21D;4016;50.758;7.150;2024-03-06T17:23:23;12.05;98.55
7942;HTU21D;4016;50.758;7.150;2024-03-06T17:28:23;11.96;100.86
7942;HTU21D;4016;50.758;7.150;2024-03-06T17:33:24;11.91;101.44
7942;HTU21D;4016;50.758;7.150;2024-03-06T17:38:25;11.75;102.79
7942;HTU21D;4016;50.758;7.150;2024-03-06T17:43:26;11.61;104.71
7942;HTU21D;4016;50.758;7.150;2024-03-06T17:48:26;11.53;104.41
7942;HTU21D;4016;50.758;7.150;2024-03-06T17:53:27;11.38;107.08
7942;HTU21D;4016;50.758;7.150;2024-03-06T17:58:27;11.20;109.53
7942;HTU21D;4016;50.758;7.150;2024-03-06T18:03:27;11.08;111.35
7942;HTU21D;4016;50.758;7.150;2024-03-06T18:08:28;10.90;113.93
7942;HTU21D;4016;50.758;7.150;2024-03-06T18:13:28;10.74;116.39
7942;HTU21D;4016;50.758;7.150;2024-03-06T18:18:29;10.62;118.18
7942;HTU21D;4016;50.758;7.150;2024-03-06T18:23:30;10.58;118.32
7942;HTU21D;4016;50.758;7.150;2024-03-06T18:28:30;10.49;118.27
7942;HTU21D;4016;50.758;7.150;2024-03-06T18:33:30;10.55;114.84
7942;HTU21D;4016;50.758;7.150;2024-03-06T18:38:31;10.39;116.29
7942;HTU21D;4016;50.758;7.150;2024-03-06T18:43:32;10.26;118.28
7942;HTU21D;4016;50.758;7.150;2024-03-06T18:48:32;10.12;118.99
7942;HTU21D;4016;50.758;7.150;2024-03-06T18:53:33;9.98;118.99
7942;HTU21D;4016;50.758;7.150;2024-03-06T18:58:33;9.93;118.99
7942;HTU21D;4016;50.758;7.150;2024-03-06T19:03:34;9.83;118.99
7942;HTU21D;4016;50.758;7.150;2024-03-06T19:08:36;9.98;118.99
7942;HTU21D;4016;50.758;7.150;2024-03-06T19:13:38;9.82;118.99
7942;HTU21D;4016;50.758;7.150;2024-03-06T19:18:38;10.04;118.99
7942;HTU21D;4016;50.758;7.150;2024-03-06T19:23:39;9.82;118.99
7942;HTU21D;4016;50.758;7.150;2024-03-06T19:28:39;9.70;118.99
7942;HTU21D;4016;50.758;7.150;2024-03-06T19:33:39;9.61;118.99
7942;HTU21D;4016;50.758;7.150;2024-03-06T19:38:40;9.60;118.99
7942;HTU21D;4016;50.758;7.150;2024-03-06T19:43:40;9.49;118.99
7942;HTU21D;4016;50.758;7.150;2024-03-06T19:48:43;9.45;118.99
7942;HTU21D;4016;50.758;7.150;2024-03-06T19:53:44;9.41;118.99
7942;HTU21D;4016;50.758;7.150;2024-03-06T19:58:45;9.38;118.99
7942;HTU21D;4016;50.758;7.150;2024-03-06T20:03:46;9.30;118.99
7942;HTU21D;4016;50.758;7.150;2024-03-06T20:08:46;9.37;118.99
7942;HTU21D;4016;50.758;7.150;2024-03-06T20:13:47;9.19;118.99
7942;HTU21D;4016;50.758;7.150;2024-03-06T20:18:47;9.22;118.99
7942;HTU21D;4016;50.758;7.150;2024-03-06T20:23:49;9.18;118.99
7942;HTU21D;4016;50.758;7.150;2024-03-06T20:28:49;9.06;118.99
7942;HTU21D;4016;50.758;7.150;2024-03-06T20:33:50;8.94;118.99
7942;HTU21D;4016;50.758;7.150;2024-03-06T20:38:51;8.90;118.99
7942;HTU21D;4016;50.758;7.150;2024-03-06T20:43:51;8.66;118.99
7942;HTU21D;4016;50.758;7.150;2024-03-06T20:48:52;8.50;118.99
7942;HTU21D;4016;50.758;7.150;2024-03-06T20:53:52;8.36;118.99
7942;HTU21D;4016;50.758;7.150;2024-03-06T20:58:53;8.31;118.99
7942;HTU21D;4016;50.758;7.150;2024-03-06T21:03:54;8.19;118.99
7942;HTU21D;4016;50.758;7.150;2024-03-06T21:08:54;8.00;118.99
7942;HTU21D;4016;50.758;7.150;2024-03-06T21:13:55;7.86;118.99
7942;HTU21D;4016;50.758;7.150;2024-03-06T21:18:55;7.75;118.99
7942;HTU21D;4016;50.758;7.150;2024-03-06T21:23:55;7.56;118.99
7942;HTU21D;4016;50.758;7.150;2024-03-06T21:28:56;7.42;118.99
7942;HTU21D;4016;50.758;7.150;2024-03-06T21:33:56;7.26;118.99
7942;HTU21D;4016;50.758;7.150;2024-03-06T21:38:56;7.09;118.99
7942;HTU21D;4016;50.758;7.150;2024-03-06T21:43:57;6.89;118.99
7942;HTU21D;4016;50.758;7.150;2024-03-06T21:48:58;6.75;118.99
7942;HTU21D;4016;50.758;7.150;2024-03-06T21:53:59;6.61;118.99
7942;HTU21D;4016;50.758;7.150;2024-03-06T21:58:59;6.41;118.99
7942;HTU21D;4016;50.758;7.150;2024-03-06T22:03:59;6.25;118.99
7942;HTU21D;4016;50.758;7.150;2024-03-06T22:09:00;6.11;118.99
7942;HTU21D;4016;50.758;7.150;2024-03-06T22:14:00;5.94;118.99
7942;HTU21D;4016;50.758;7.150;2024-03-06T22:19:01;5.83;118.99
7942;HTU21D;4016;50.758;7.150;2024-03-06T22:24:01;5.69;118.99
7942;HTU21D;4016;50.758;7.150;2024-03-06T22:29:03;5.59;118.99
7942;HTU21D;4016;50.758;7.150;2024-03-06T22:34:04;5.46;118.99
7942;HTU21D;4016;50.758;7.150;2024-03-06T22:39:05;5.30;118.99
7942;HTU21D;4016;50.758;7.150;2024-03-06T22:44:05;5.16;118.99
7942;HTU21D;4016;50.758;7.150;2024-03-06T22:49:06;5.05;118.99
7942;HTU21D;4016;50.758;7.150;2024-03-06T22:54:07;4.95;118.99
7942;HTU21D;4016;50.758;7.150;2024-03-06T22:59:07;4.84;118.99
7942;HTU21D;4016;50.758;7.150;2024-03-06T23:04:08;4.77;118.99
7942;HTU21D;4016;50.758;7.150;2024-03-06T23:09:08;4.71;118.99
7942;HTU21D;4016;50.758;7.150;2024-03-06T23:14:09;4.61;118.99
7942;HTU21D;4016;50.758;7.150;2024-03-06T23:19:09;4.50;118.99
7942;HTU21D;4016;50.758;7.150;2024-03-06T23:24:10;4.39;118.99
7942;HTU21D;4016;50.758;7.150;2024-03-06T23:29:11;4.31;118.99
7942;HTU21D;4016;50.758;7.150;2024-03-06T23:34:12;4.22;118.99
7942;HTU21D;4016;50.758;7.150;2024-03-06T23:39:13;4.13;118.99
7942;HTU21D;4016;50.758;7.150;2024-03-06T23:44:13;4.16;118.99
7942;HTU21D;4016;50.758;7.150;2024-03-06T23:49:13;4.08;118.99
7942;HTU21D;4016;50.758;7.150;2024-03-06T23:54:14;4.07;118.99
7942;HTU21D;4016;50.758;7.150;2024-03-06T23:59:14;4.06;118.99
